Time;durP1;ratioP1;P1;durP2;ratioP2;P2;SDS_P1;SDS_P2;PMS_P1;PMS_P2;Temp;Humidity;BMP_temperature;BMP_pressure;BME280_temperature;BME280_humidity;BME280_pressure;Samples;Min_cycle;Max_cycle;Signal;HPM_P1;HPM_P2
2023/01/21 00:01:41;;;;;;;;;;;;;;;24.90;34.71;94542.38;5015984;28;1829;-71
2023/01/21 00:04:06;;;;;;;;;;;;;;;24.90;34.96;94545.91;5018675;28;1433;-71
2023/01/21 00:06:31;;;;;;;;;;;;;;;24.90;34.91;94532.50;5010680;28;1586;-73
2023/01/21 00:08:58;;;;;;;;;;;;;;;24.90;34.92;94529.81;5014995;28;1602;-72
2023/01/21 00:11:23;;;;;;;;;;;;;;;24.91;35.02;94542.16;5014390;28;1692;-74
2023/01/21 00:13:48;;;;;;;;;;;;;;;24.90;34.93;94545.91;5033160;28;1670;-73
2023/01/21 00:16:13;;;;;;;;;;;;;;;24.88;35.08;94548.00;5028078;28;1918;-73
2023/01/21 00:18:39;;;;;;;;;;;;;;;24.88;34.99;94553.38;5001481;28;1630;-72
2023/01/21 00:21:04;;;;;;;;;;;;;;;24.88;35.36;94541.84;5014173;28;1696;-73
2023/01/21 00:23:29;;;;;;;;;;;;;;;24.88;35.49;94550.69;5012382;28;1760;-73
2023/01/21 00:25:58;;;;;;;;;;;;;;;24.89;35.51;94540.78;5012015;28;1640;-75
2023/01/21 00:28:23;;;;;;;;;;;;;;;24.95;35.30;94531.75;5011681;28;1794;-71
2023/01/21 00:30:49;;;;;;;;;;;;;;;24.95;35.38;94528.25;5009724;28;1731;-72
2023/01/21 00:33:14;;;;;;;;;;;;;;;24.95;35.68;94531.75;5014307;28;1560;-73
2023/01/21 00:35:41;;;;;;;;;;;;;;;24.95;35.55;94547.03;5014682;28;1914;-73
2023/01/21 00:38:06;;;;;;;;;;;;;;;24.95;35.72;94549.72;5032846;28;827;-73
2023/01/21 00:40:31;;;;;;;;;;;;;;;24.94;35.53;94540.84;5010205;28;1694;-73
2023/01/21 00:42:56;;;;;;;;;;;;;;;24.94;35.50;94526.63;5020010;28;1510;-73
2023/01/21 00:45:22;;;;;;;;;;;;;;;24.92;35.55;94513.44;5011295;28;1721;-72
2023/01/21 00:47:47;;;;;;;;;;;;;;;24.90;35.93;94521.75;5021692;28;1531;-72
2023/01/21 00:50:12;;;;;;;;;;;;;;;24.89;35.84;94544.25;5011672;28;1634;-71
2023/01/21 00:52:37;;;;;;;;;;;;;;;24.89;35.79;94536.22;5009433;28;1686;-72
2023/01/21 00:55:03;;;;;;;;;;;;;;;24.90;35.84;94524.44;5021747;28;1903;-72
2023/01/21 00:57:29;;;;;;;;;;;;;;;24.89;35.74;94520.13;5013986;28;1665;-73
2023/01/21 00:59:54;;;;;;;;;;;;;;;24.88;35.66;94513.13;5016121;28;1655;-74
2023/01/21 01:02:19;;;;;;;;;;;;;;;24.87;36.03;94530.28;5012496;28;1613;-74
2023/01/21 01:04:44;;;;;;;;;;;;;;;24.91;36.08;94539.47;5011678;28;1511;-72
2023/01/21 01:07:10;;;;;;;;;;;;;;;24.91;36.12;94534.09;5020009;28;1654;-71
2023/01/21 01:09:35;;;;;;;;;;;;;;;24.92;35.91;94533.03;5021560;28;1503;-71
2023/01/21 01:12:01;;;;;;;;;;;;;;;24.93;36.17;94517.75;5020355;28;1709;-72
2023/01/21 01:14:26;;;;;;;;;;;;;;;24.94;36.29;94532.00;5007781;28;1772;-72
2023/01/21 01:16:51;;;;;;;;;;;;;;;24.94;36.00;94523.94;5014714;28;1965;-71
2023/01/21 01:19:17;;;;;;;;;;;;;;;24.93;36.03;94517.75;5016619;28;1541;-71
2023/01/21 01:21:42;;;;;;;;;;;;;;;24.95;36.10;94528.25;5019078;28;1632;-71
2023/01/21 01:24:07;;;;;;;;;;;;;;;24.95;36.00;94533.63;5015550;28;1502;-72
2023/01/21 01:26:35;;;;;;;;;;;;;;;24.95;36.05;94528.25;5003772;28;1625;-71
2023/01/21 01:29:02;;;;;;;;;;;;;;;24.94;36.14;94516.69;5014005;28;1688;-72
2023/01/21 01:31:27;;;;;;;;;;;;;;;24.94;35.99;94523.94;5019390;28;1640;-71
2023/01/21 01:33:53;;;;;;;;;;;;;;;24.93;36.00;94512.38;5019215;28;1726;-72
2023/01/21 01:36:19;;;;;;;;;;;;;;;24.94;36.13;94519.38;5018728;28;1992;-72
2023/01/21 01:38:45;;;;;;;;;;;;;;;24.94;36.05;94499.81;5007739;28;1730;-72
2023/01/21 01:41:15;;;;;;;;;;;;;;;24.94;35.90;94497.91;5013716;28;1521;-72
2023/01/21 01:43:46;;;;;;;;;;;;;;;24.94;36.18;94508.66;5013466;28;1669;-72
2023/01/21 01:46:12;;;;;;;;;;;;;;;24.94;36.15;94523.94;5018246;28;1800;-72
2023/01/21 01:48:37;;;;;;;;;;;;;;;24.94;36.04;94507.84;5004905;28;1754;-72
2023/01/21 01:51:06;;;;;;;;;;;;;;;24.94;36.23;94481.81;5014598;28;1632;-71
2023/01/21 01:53:32;;;;;;;;;;;;;;;24.94;36.05;94471.09;5019857;28;1623;-72
2023/01/21 01:55:58;;;;;;;;;;;;;;;24.94;35.96;94467.59;5014417;28;1902;-71
2023/01/21 01:58:23;;;;;;;;;;;;;;;24.95;36.22;94477.25;5015419;28;1672;-72
2023/01/21 02:00:49;;;;;;;;;;;;;;;24.94;36.21;94464.91;5005216;28;1631;-71
2023/01/21 02:05:59;;;;;;;;;;;;;;;24.92;36.23;94463.28;5014298;28;1654;-72
2023/01/21 02:08:25;;;;;;;;;;;;;;;24.92;35.96;94471.31;5012221;28;1536;-72
2023/01/21 02:10:50;;;;;;;;;;;;;;;24.92;36.14;94495.47;5006635;28;1696;-72
2023/01/21 02:13:16;;;;;;;;;;;;;;;24.93;36.17;94474.81;5026021;28;1650;-72
2023/01/21 02:15:49;;;;;;;;;;;;;;;24.92;36.32;94454.41;5026761;28;1918;-72
2023/01/21 02:18:37;;;;;;;;;;;;;;;24.92;36.10;94457.91;5013493;28;1634;-72
2023/01/21 02:21:21;;;;;;;;;;;;;;;24.91;35.97;94436.69;5002736;28;1680;-72
2023/01/21 02:24:05;;;;;;;;;;;;;;;24.91;36.32;94460.84;5003500;28;1768;-72
2023/01/21 02:26:49;;;;;;;;;;;;;;;24.91;36.27;94432.16;5011836;28;1594;-72
2023/01/21 02:29:29;;;;;;;;;;;;;;;24.90;36.20;94419.78;5012881;28;1634;-71
2023/01/21 02:32:09;;;;;;;;;;;;;;;24.92;36.61;94428.38;5014749;28;1669;-71
2023/01/21 02:34:46;;;;;;;;;;;;;;;24.92;36.43;94425.72;5000656;28;1914;-71
2023/01/21 02:37:27;;;;;;;;;;;;;;;24.89;36.41;94428.88;5011437;28;1810;-71
2023/01/21 02:40:07;;;;;;;;;;;;;;;24.89;36.61;94439.63;5011747;28;1511;-71
2023/01/21 02:42:39;;;;;;;;;;;;;;;24.87;36.73;94433.72;5002492;28;1714;-72
2023/01/21 02:45:13;;;;;;;;;;;;;;;24.87;36.64;94420.28;4995368;28;1566;-71
2023/01/21 02:48:03;;;;;;;;;;;;;;;24.89;36.98;94431.56;5013337;28;1589;-70
2023/01/21 02:50:31;;;;;;;;;;;;;;;24.90;36.98;94443.09;5013738;28;1445;-71
2023/01/21 02:52:58;;;;;;;;;;;;;;;24.90;36.66;94435.06;5013343;28;1638;-71
2023/01/21 02:55:26;;;;;;;;;;;;;;;24.89;37.28;94426.19;5021651;28;1960;-71
2023/01/21 02:57:53;;;;;;;;;;;;;;;24.91;37.20;94429.47;5003195;28;1433;-71
2023/01/21 03:00:22;;;;;;;;;;;;;;;24.95;37.35;94413.66;5014586;28;1475;-71
2023/01/21 03:02:47;;;;;;;;;;;;;;;24.96;37.30;94412.63;5021873;28;1551;-71
2023/01/21 03:05:25;;;;;;;;;;;;;;;24.95;37.50;94397.56;5024863;28;1556;-71
2023/01/21 03:08:09;;;;;;;;;;;;;;;24.98;37.54;94391.72;5007491;28;1700;-71
2023/01/21 03:10:34;;;;;;;;;;;;;;;25.00;37.43;94407.56;5018048;28;1651;-71
2023/01/21 03:13:02;;;;;;;;;;;;;;;25.00;37.81;94394.97;5015222;28;1572;-71
2023/01/21 03:18:27;;;;;;;;;;;;;;;25.04;37.59;94379.16;5011335;28;1551;-71
2023/01/21 03:20:54;;;;;;;;;;;;;;;25.07;37.79;94400.13;5008808;28;1686;-70
2023/01/21 03:23:23;;;;;;;;;;;;;;;25.09;37.70;94395.34;5020061;28;1615;-71
2023/01/21 03:25:49;;;;;;;;;;;;;;;25.07;37.83;94384.03;5016000;28;1646;-72
2023/01/21 03:28:18;;;;;;;;;;;;;;;25.10;37.72;94383.53;5020872;28;1655;-70
2023/01/21 03:30:46;;;;;;;;;;;;;;;25.11;37.96;94379.81;5012880;28;1551;-71
2023/01/21 03:33:13;;;;;;;;;;;;;;;25.12;37.87;94359.94;5010556;28;1770;-71
2023/01/21 03:35:42;;;;;;;;;;;;;;;25.10;37.88;94367.44;5014520;28;1965;-71
2023/01/21 03:38:13;;;;;;;;;;;;;;;25.09;37.76;94376.56;5011587;28;1667;-71
2023/01/21 03:40:41;;;;;;;;;;;;;;;25.11;37.60;94374.44;5014964;28;1790;-71
2023/01/21 03:43:06;;;;;;;;;;;;;;;25.11;37.75;94361.81;5002889;28;1727;-71
2023/01/21 03:45:34;;;;;;;;;;;;;;;25.11;37.54;94369.06;5015504;28;1475;-71
2023/01/21 03:48:04;;;;;;;;;;;;;;;25.11;37.82;94367.19;5012171;28;1598;-72
2023/01/21 03:50:42;;;;;;;;;;;;;;;25.12;37.88;94355.38;5011209;28;1361;-71
2023/01/21 03:53:08;;;;;;;;;;;;;;;25.15;37.57;94350.63;5008556;28;1783;-71
2023/01/21 03:55:34;;;;;;;;;;;;;;;25.17;37.63;94349.31;5010185;28;1906;-71
2023/01/21 03:57:59;;;;;;;;;;;;;;;25.16;37.77;94334.28;5009972;28;1433;-71
2023/01/21 04:00:24;;;;;;;;;;;;;;;25.16;37.52;94334.28;5010084;28;1671;-71
2023/01/21 04:02:50;;;;;;;;;;;;;;;25.17;37.67;94338.56;5008927;28;1717;-71
2023/01/21 04:05:15;;;;;;;;;;;;;;;25.18;37.56;94329.44;5000217;28;1485;-71
2023/01/21 04:07:40;;;;;;;;;;;;;;;25.17;37.69;94335.91;5011182;28;1652;-71
2023/01/21 04:10:06;;;;;;;;;;;;;;;25.18;37.72;94342.06;5010226;28;1724;-71
2023/01/21 04:12:32;;;;;;;;;;;;;;;25.17;37.47;94330.53;5010715;28;1745;-71
2023/01/21 04:14:57;;;;;;;;;;;;;;;25.17;37.75;94325.16;5019948;28;1910;-71
2023/01/21 04:17:22;;;;;;;;;;;;;;;25.17;37.72;94330.53;5001703;28;1575;-71
2023/01/21 04:19:48;;;;;;;;;;;;;;;25.17;37.76;94330.53;5018117;28;1730;-72
2023/01/21 04:22:13;;;;;;;;;;;;;;;25.19;37.71;94327.56;5011309;28;1674;-71
2023/01/21 04:24:38;;;;;;;;;;;;;;;25.18;37.73;94318.72;5019435;28;1589;-71
2023/01/21 04:27:03;;;;;;;;;;;;;;;25.19;37.59;94332.94;5005189;28;1724;-71
2023/01/21 04:29:29;;;;;;;;;;;;;;;25.19;37.88;94339.16;5009007;28;1536;-71
2023/01/21 04:31:54;;;;;;;;;;;;;;;25.19;37.82;94343.69;5006479;28;1736;-71
2023/01/21 04:34:19;;;;;;;;;;;;;;;25.18;37.57;94345.56;5007080;28;1715;-71
2023/01/21 04:36:45;;;;;;;;;;;;;;;25.18;37.45;94347.44;5015101;28;1963;-71
2023/01/21 04:39:10;;;;;;;;;;;;;;;25.21;37.80;94366.53;5001826;28;1734;-71
2023/01/21 04:41:37;;;;;;;;;;;;;;;25.21;37.66;94358.47;5010717;28;1768;-71
2023/01/21 04:44:02;;;;;;;;;;;;;;;25.21;37.60;94355.00;5014028;28;1483;-71
2023/01/21 04:46:27;;;;;;;;;;;;;;;25.21;37.62;94349.63;5018465;28;1571;-71
2023/01/21 04:48:53;;;;;;;;;;;;;;;25.20;37.68;94340.75;5016670;28;1417;-71
2023/01/21 04:51:18;;;;;;;;;;;;;;;25.22;37.55;94360.13;5002114;28;1542;-71
2023/01/21 04:53:43;;;;;;;;;;;;;;;25.22;37.49;94360.13;5014532;28;1587;-71
2023/01/21 04:56:08;;;;;;;;;;;;;;;25.23;37.50;94379.72;5012364;28;1913;-72
2023/01/21 04:58:34;;;;;;;;;;;;;;;25.23;37.44;94383.19;5011364;28;1614;-71
2023/01/21 05:00:59;;;;;;;;;;;;;;;25.24;37.62;94387.50;5003775;28;1645;-71
2023/01/21 05:03:26;;;;;;;;;;;;;;;25.24;37.70;94384.81;5002495;28;1549;-71
2023/01/21 05:05:51;;;;;;;;;;;;;;;25.26;37.50;94381.91;5008373;28;1471;-71
2023/01/21 05:08:16;;;;;;;;;;;;;;;25.24;37.63;94382.13;5007689;28;1569;-71
2023/01/21 05:10:42;;;;;;;;;;;;;;;25.27;37.72;94373.59;5007294;28;1652;-71
2023/01/21 05:13:07;;;;;;;;;;;;;;;25.26;37.52;94379.22;4997723;28;1642;-72
2023/01/21 05:15:32;;;;;;;;;;;;;;;25.28;37.75;94380.59;5018277;28;1914;-72
2023/01/21 05:17:59;;;;;;;;;;;;;;;25.30;37.53;94394.59;5010440;28;1557;-72
2023/01/21 05:20:24;;;;;;;;;;;;;;;25.32;37.73;94391.63;5019553;28;1512;-73
2023/01/21 05:22:49;;;;;;;;;;;;;;;25.34;37.71;94390.31;5010526;28;1499;-73
2023/01/21 05:25:15;;;;;;;;;;;;;;;25.35;37.66;94402.66;4995062;28;1680;-72
2023/01/21 05:27:40;;;;;;;;;;;;;;;25.34;37.63;94384.94;5007328;28;1773;-71
2023/01/21 05:30:06;;;;;;;;;;;;;;;25.33;37.62;94386.03;5009858;28;1423;-71
2023/01/21 05:32:31;;;;;;;;;;;;;;;25.34;37.65;94409.13;5010781;28;1453;-71
2023/01/21 05:34:56;;;;;;;;;;;;;;;25.35;37.51;94409.91;5008282;28;1898;-72
2023/01/21 05:37:21;;;;;;;;;;;;;;;25.38;37.80;94405.94;5010696;28;1681;-73
2023/01/21 05:39:47;;;;;;;;;;;;;;;25.39;37.47;94413.75;5007489;28;1587;-72
2023/01/21 05:42:12;;;;;;;;;;;;;;;25.41;37.45;94402.75;5009615;28;1586;-72
2023/01/21 05:44:37;;;;;;;;;;;;;;;25.42;37.50;94405.19;5013873;28;1597;-72
2023/01/21 05:47:03;;;;;;;;;;;;;;;25.41;37.27;94405.44;5006005;28;1649;-70
2023/01/21 05:49:28;;;;;;;;;;;;;;;25.41;37.17;94405.44;5010341;28;1648;-71
2023/01/21 05:51:53;;;;;;;;;;;;;;;25.38;37.35;94411.28;5016673;28;1648;-71
2023/01/21 05:54:18;;;;;;;;;;;;;;;25.37;37.38;94417.75;5024718;28;1599;-71
2023/01/21 05:56:44;;;;;;;;;;;;;;;25.41;37.35;94422.34;5015823;28;1977;-73
2023/01/21 05:59:09;;;;;;;;;;;;;;;25.41;36.99;94434.97;5007929;28;1645;-71
2023/01/21 06:01:34;;;;;;;;;;;;;;;25.34;34.38;94422.53;5017719;28;1495;-72
2023/01/21 06:03:59;;;;;;;;;;;;;;;23.76;27.92;94412.84;5012791;28;1471;-71
2023/01/21 06:06:25;;;;;;;;;;;;;;;22.34;28.13;94418.56;5016896;28;1633;-71
2023/01/21 06:08:50;;;;;;;;;;;;;;;21.38;27.91;94420.34;5009512;28;1657;-71
2023/01/21 06:11:15;;;;;;;;;;;;;;;20.73;27.72;94420.84;5015357;28;1699;-71
2023/01/21 06:13:40;;;;;;;;;;;;;;;20.30;27.87;94427.75;5017000;28;1693;-71
2023/01/21 06:16:06;;;;;;;;;;;;;;;20.00;28.32;94425.72;5019704;28;1906;-72
2023/01/21 06:18:31;;;;;;;;;;;;;;;19.76;28.44;94422.00;5016108;28;1647;-72
2023/01/21 06:21:00;;;;;;;;;;;;;;;19.58;28.68;94423.72;5009392;28;1591;-72
2023/01/21 06:23:25;;;;;;;;;;;;;;;19.42;28.07;94428.50;5010343;28;1574;-72
2023/01/21 06:25:50;;;;;;;;;;;;;;;19.20;28.41;94441.28;5011774;28;1709;-72
2023/01/21 06:28:16;;;;;;;;;;;;;;;19.12;28.51;94436.19;5016693;28;1662;-72
2023/01/21 06:30:41;;;;;;;;;;;;;;;18.92;28.25;94433.59;5010850;28;1666;-71
2023/01/21 06:33:06;;;;;;;;;;;;;;;18.77;28.55;94447.13;5007207;28;1273;-70
2023/01/21 06:35:32;;;;;;;;;;;;;;;18.61;28.56;94455.50;5011490;28;1918;-71
2023/01/21 06:37:57;;;;;;;;;;;;;;;18.49;28.41;94451.84;5013438;28;1407;-72
2023/01/21 06:40:24;;;;;;;;;;;;;;;18.29;28.51;94449.22;5012878;28;1302;-72
2023/01/21 06:42:49;;;;;;;;;;;;;;;18.16;28.62;94450.84;5001743;28;1598;-72
2023/01/21 06:45:15;;;;;;;;;;;;;;;18.10;28.90;94454.31;5020383;28;1616;-71
2023/01/21 06:47:43;;;;;;;;;;;;;;;18.04;29.05;94455.09;5011579;28;1449;-71
2023/01/21 06:50:13;;;;;;;;;;;;;;;17.93;28.73;94443.28;5012078;28;1407;-72
2023/01/21 06:52:42;;;;;;;;;;;;;;;17.89;29.03;94446.53;5012718;28;1288;-72
2023/01/21 06:55:07;;;;;;;;;;;;;;;17.82;29.25;94446.53;5001510;28;1967;-72
2023/01/21 06:57:32;;;;;;;;;;;;;;;17.87;29.12;94459.16;5011839;28;1568;-72
2023/01/21 06:59:57;;;;;;;;;;;;;;;17.87;29.39;94469.78;5011768;28;1634;-72
2023/01/21 07:02:23;;;;;;;;;;;;;;;17.87;29.39;94481.25;5005327;28;1556;-73
2023/01/21 07:04:50;;;;;;;;;;;;;;;17.82;29.33;94485.50;4997550;28;2723;-72
2023/01/21 07:07:15;;;;;;;;;;;;;;;17.76;29.20;94479.94;5004813;28;1446;-72
2023/01/21 07:09:40;;;;;;;;;;;;;;;17.78;29.36;94482.41;5006114;28;1642;-72
2023/01/21 07:12:06;;;;;;;;;;;;;;;17.70;29.13;94474.59;4997755;28;1406;-72
2023/01/21 07:14:31;;;;;;;;;;;;;;;17.69;29.55;94467.69;5011268;28;1746;-72
2023/01/21 07:16:56;;;;;;;;;;;;;;;17.66;29.69;94468.09;5000284;28;1917;-72
2023/01/21 07:19:21;;;;;;;;;;;;;;;17.60;29.58;94480.31;5009616;28;1692;-72
2023/01/21 07:21:47;;;;;;;;;;;;;;;17.57;29.39;94469.28;5012187;28;1323;-72
2023/01/21 07:24:12;;;;;;;;;;;;;;;17.61;29.58;94463.38;5011644;28;1442;-71
2023/01/21 07:26:37;;;;;;;;;;;;;;;17.50;29.53;94471.91;5010586;28;1649;-73
2023/01/21 07:29:04;;;;;;;;;;;;;;;17.57;29.52;94478.06;4999433;28;1704;-72
2023/01/21 07:31:29;;;;;;;;;;;;;;;17.52;29.79;94483.94;5011040;28;1562;-72
2023/01/21 07:33:55;;;;;;;;;;;;;;;17.52;29.58;94483.94;5011873;28;1537;-72
2023/01/21 07:36:20;;;;;;;;;;;;;;;17.50;29.48;94480.69;5012191;28;1926;-72
2023/01/21 07:38:45;;;;;;;;;;;;;;;17.53;29.71;94474.16;5007058;28;1581;-73
2023/01/21 07:41:10;;;;;;;;;;;;;;;17.58;29.78;94461.13;5005574;28;1551;-73
2023/01/21 07:43:36;;;;;;;;;;;;;;;17.60;29.85;94461.75;5011706;28;1606;-73
2023/01/21 07:46:01;;;;;;;;;;;;;;;17.65;30.18;94463.81;5013926;28;1482;-74
2023/01/21 07:48:26;;;;;;;;;;;;;;;17.72;29.96;94470.75;5009650;28;1570;-73
2023/01/21 07:50:55;;;;;;;;;;;;;;;17.77;29.74;94455.03;5002449;28;1625;-73
2023/01/21 07:53:20;;;;;;;;;;;;;;;18.10;30.89;94462.28;5011174;28;1344;-71
2023/01/21 07:55:45;;;;;;;;;;;;;;;18.59;30.42;94474.31;5010555;28;1898;-73
2023/01/21 07:58:10;;;;;;;;;;;;;;;18.85;30.65;94476.16;5009290;28;1628;-72
2023/01/21 08:00:36;;;;;;;;;;;;;;;19.14;29.96;94476.69;5020254;28;1542;-73
2023/01/21 08:03:01;;;;;;;;;;;;;;;19.17;29.71;94462.16;5001231;28;1554;-72
2023/01/21 08:05:28;;;;;;;;;;;;;;;19.24;29.61;94458.47;5012196;28;1508;-75
2023/01/21 08:07:55;;;;;;;;;;;;;;;19.34;29.75;94460.66;5011777;28;1812;-74
2023/01/21 08:10:21;;;;;;;;;;;;;;;19.64;30.03;94450.31;5012278;28;1466;-71
2023/01/21 08:12:46;;;;;;;;;;;;;;;20.08;30.22;94461.94;5006580;28;1756;-72
2023/01/21 08:15:11;;;;;;;;;;;;;;;20.47;29.75;94478.66;5008902;28;1887;-73
2023/01/21 08:17:38;;;;;;;;;;;;;;;20.82;29.81;94480.84;5009712;28;1739;-72
2023/01/21 08:20:03;;;;;;;;;;;;;;;21.09;29.75;94462.72;5010085;28;1354;-73
2023/01/21 08:22:28;;;;;;;;;;;;;;;21.32;29.65;94459.38;5010570;28;1737;-72
2023/01/21 08:24:54;;;;;;;;;;;;;;;21.49;29.84;94459.63;5004078;28;1825;-73
2023/01/21 08:27:19;;;;;;;;;;;;;;;21.64;29.52;94467.25;5006343;28;1602;-73
2023/01/21 08:29:45;;;;;;;;;;;;;;;21.75;29.68;94467.28;5003948;28;1491;-72
2023/01/21 08:32:10;;;;;;;;;;;;;;;21.87;29.43;94469.19;5006462;28;1710;-72
2023/01/21 08:34:36;;;;;;;;;;;;;;;21.96;29.37;94483.84;5013252;28;1670;-72
2023/01/21 08:37:01;;;;;;;;;;;;;;;22.04;29.39;94475.50;5002723;28;1939;-72
2023/01/21 08:39:26;;;;;;;;;;;;;;;22.11;29.23;94473.56;5009839;28;1524;-72
2023/01/21 08:41:51;;;;;;;;;;;;;;;22.19;29.39;94469.78;5011322;28;1732;-72
2023/01/21 08:44:17;;;;;;;;;;;;;;;22.26;29.50;94475.84;5013237;28;1915;-72
2023/01/21 08:46:42;;;;;;;;;;;;;;;22.32;29.16;94477.59;5006193;28;1648;-72
2023/01/21 08:49:07;;;;;;;;;;;;;;;22.37;29.05;94474.22;5012175;28;1694;-72
2023/01/21 08:51:33;;;;;;;;;;;;;;;22.44;29.17;94474.94;5010383;28;1537;-72
2023/01/21 08:53:58;;;;;;;;;;;;;;;22.48;29.15;94481.44;5009642;28;1612;-72
2023/01/21 08:56:23;;;;;;;;;;;;;;;22.52;29.07;94481.81;5011252;28;1898;-72
2023/01/21 08:58:52;;;;;;;;;;;;;;;22.57;29.28;94484.59;5004767;28;1434;-72
2023/01/21 09:01:18;;;;;;;;;;;;;;;22.62;29.20;94469.50;5030272;28;1161;-73
2023/01/21 09:03:43;;;;;;;;;;;;;;;22.67;29.10;94477.63;5018482;28;1807;-72
2023/01/21 09:06:09;;;;;;;;;;;;;;;22.71;28.99;94482.53;5015375;28;1798;-73
2023/01/21 09:08:35;;;;;;;;;;;;;;;22.74;29.08;94480.22;5016902;28;1342;-73
2023/01/21 09:11:01;;;;;;;;;;;;;;;22.78;29.03;94485.91;5032429;28;1702;-72
2023/01/21 09:13:27;;;;;;;;;;;;;;;22.81;29.20;94490.78;5010042;28;866;-73
2023/01/21 09:15:52;;;;;;;;;;;;;;;22.84;29.14;94493.00;5008906;28;1955;-72
2023/01/21 09:18:18;;;;;;;;;;;;;;;22.87;29.21;94490.66;5010665;28;1166;-72
2023/01/21 09:20:43;;;;;;;;;;;;;;;22.89;29.12;94477.09;5010886;28;1659;-72
2023/01/21 09:23:24;;;;;;;;;;;;;;;22.94;29.13;94481.72;5003566;28;1454;-72
2023/01/21 09:26:02;;;;;;;;;;;;;;;22.95;29.09;94476.19;5020145;28;1602;-72
2023/01/21 09:28:27;;;;;;;;;;;;;;;22.96;28.97;94475.13;5015730;28;1615;-72
2023/01/21 09:30:57;;;;;;;;;;;;;;;22.99;29.06;94474.66;5016367;28;1712;-71
2023/01/21 09:33:22;;;;;;;;;;;;;;;23.01;29.12;94480.59;5002612;28;1504;-72
2023/01/21 09:35:51;;;;;;;;;;;;;;;23.04;29.21;94469.41;5016533;28;1950;-72
2023/01/21 09:38:17;;;;;;;;;;;;;;;23.05;29.02;94463.03;5008250;28;1357;-72
2023/01/21 09:40:43;;;;;;;;;;;;;;;23.08;28.86;94464.41;5024673;28;1679;-72
2023/01/21 09:43:12;;;;;;;;;;;;;;;23.10;29.02;94462.31;5020047;28;1521;-72
2023/01/21 09:45:38;;;;;;;;;;;;;;;23.12;28.67;94466.38;5004109;28;1484;-72
2023/01/21 09:48:05;;;;;;;;;;;;;;;23.16;28.79;94463.25;5009319;28;1725;-72
2023/01/21 09:50:31;;;;;;;;;;;;;;;23.18;28.81;94445.09;5014088;28;1650;-71
2023/01/21 09:53:03;;;;;;;;;;;;;;;23.21;28.67;94447.31;5020141;28;1595;-72
2023/01/21 09:55:34;;;;;;;;;;;;;;;23.24;28.72;94442.28;5004069;28;1906;-71
2023/01/21 09:58:17;;;;;;;;;;;;;;;23.27;28.78;94435.66;5007630;28;1873;-71
2023/01/21 10:00:48;;;;;;;;;;;;;;;23.29;28.77;94430.88;5008447;28;1307;-72
2023/01/21 10:03:17;;;;;;;;;;;;;;;23.32;28.73;94435.75;4991751;28;1448;-72
2023/01/21 10:05:51;;;;;;;;;;;;;;;23.33;28.68;94434.69;5012028;28;1775;-72
2023/01/21 10:08:25;;;;;;;;;;;;;;;23.35;28.74;94417.34;5003149;28;1711;-72
2023/01/21 10:10:54;;;;;;;;;;;;;;;23.37;28.68;94425.16;5012413;28;1628;-72
2023/01/21 10:13:31;;;;;;;;;;;;;;;23.38;28.92;94424.09;5013637;28;1644;-72
2023/01/21 10:15:57;;;;;;;;;;;;;;;23.41;28.68;94425.50;5013963;28;1904;-72
2023/01/21 10:18:25;;;;;;;;;;;;;;;23.43;28.75;94420.72;5001800;28;1853;-71
2023/01/21 10:20:53;;;;;;;;;;;;;;;23.42;28.86;94419.88;5007897;28;1494;-72
2023/01/21 10:23:25;;;;;;;;;;;;;;;23.45;29.04;94408.72;5013313;28;1674;-72
2023/01/21 10:25:51;;;;;;;;;;;;;;;23.47;28.91;94406.59;5011128;28;1676;-72
2023/01/21 10:28:16;;;;;;;;;;;;;;;23.49;28.90;94412.53;5020581;28;1605;-73
2023/01/21 10:30:42;;;;;;;;;;;;;;;23.51;28.88;94410.44;5003210;28;1647;-72
2023/01/21 10:33:14;;;;;;;;;;;;;;;23.53;28.86;94413.69;5013025;28;1318;-72
2023/01/21 10:35:46;;;;;;;;;;;;;;;23.55;28.72;94408.09;5013289;28;1973;-73
2023/01/21 10:38:11;;;;;;;;;;;;;;;23.55;28.93;94410.78;5019846;28;1683;-72
2023/01/21 10:40:48;;;;;;;;;;;;;;;23.57;28.83;94406.81;5013654;28;1734;-72
2023/01/21 10:43:32;;;;;;;;;;;;;;;23.58;28.85;94411.13;5013645;28;1538;-72
2023/01/21 10:45:57;;;;;;;;;;;;;;;23.60;28.87;94394.00;5019200;28;1271;-72
2023/01/21 10:48:38;;;;;;;;;;;;;;;23.61;28.72;94379.56;5007433;28;1752;-72
2023/01/21 10:51:10;;;;;;;;;;;;;;;23.62;28.88;94381.19;5012673;28;1415;-72
2023/01/21 10:53:41;;;;;;;;;;;;;;;23.62;28.85;94378.50;5002112;28;1375;-71
2023/01/21 10:56:13;;;;;;;;;;;;;;;23.64;28.68;94387.91;5011601;28;1891;-72
2023/01/21 10:58:45;;;;;;;;;;;;;;;23.65;28.65;94388.72;5011035;28;1420;-72
2023/01/21 11:01:17;;;;;;;;;;;;;;;23.67;28.73;94381.28;5013163;28;1341;-72
2023/01/21 11:03:44;;;;;;;;;;;;;;;23.67;28.67;94376.72;5002552;28;1641;-72
2023/01/21 11:06:12;;;;;;;;;;;;;;;23.69;28.85;94365.78;5011731;28;1273;-72
2023/01/21 11:08:38;;;;;;;;;;;;;;;23.69;28.92;94360.44;5008735;28;1395;-72
2023/01/21 11:11:05;;;;;;;;;;;;;;;23.69;28.95;94358.56;5012795;28;807;-74
2023/01/21 11:13:30;;;;;;;;;;;;;;;23.69;28.69;94363.09;5019779;28;1709;-71
2023/01/21 11:15:56;;;;;;;;;;;;;;;23.68;28.77;94361.47;5018091;28;1985;-72
2023/01/21 11:18:31;;;;;;;;;;;;;;;23.67;28.91;94360.66;5011011;28;1689;-72
2023/01/21 11:20:58;;;;;;;;;;;;;;;23.68;28.83;94369.50;4989947;28;1340;-72
2023/01/21 11:23:30;;;;;;;;;;;;;;;23.68;28.85;94366.81;5011167;28;1699;-72
2023/01/21 11:26:00;;;;;;;;;;;;;;;23.67;28.84;94360.66;5014147;28;1646;-72
2023/01/21 11:28:28;;;;;;;;;;;;;;;23.67;28.77;94368.69;5002598;28;1399;-72
2023/01/21 11:31:03;;;;;;;;;;;;;;;23.67;29.04;94365.22;5011554;28;1366;-72
2023/01/21 11:33:28;;;;;;;;;;;;;;;23.67;28.89;94360.66;5011443;28;1442;-72
2023/01/21 11:35:54;;;;;;;;;;;;;;;23.68;29.02;94366.81;5014246;28;1961;-72
2023/01/21 11:38:40;;;;;;;;;;;;;;;23.68;28.97;94362.31;5001677;28;1741;-72
2023/01/21 11:41:08;;;;;;;;;;;;;;;23.70;28.96;94364.72;5008755;28;1628;-72
2023/01/21 11:43:38;;;;;;;;;;;;;;;23.70;29.11;94362.88;5011550;28;1747;-72
2023/01/21 11:46:18;;;;;;;;;;;;;;;23.71;28.96;94355.69;5014470;28;1422;-71
2023/01/21 11:48:44;;;;;;;;;;;;;;;23.70;29.08;94348.66;5008023;28;1429;-71
2023/01/21 11:51:09;;;;;;;;;;;;;;;23.70;29.08;94348.66;5008513;28;1615;-72
2023/01/21 11:53:36;;;;;;;;;;;;;;;23.70;28.96;94354.84;5011324;28;1685;-72
2023/01/21 11:56:02;;;;;;;;;;;;;;;23.71;28.99;94358.38;5010876;28;1964;-73
2023/01/21 11:58:29;;;;;;;;;;;;;;;23.72;29.09;94352.75;5010671;28;1743;-71
2023/01/21 12:00:56;;;;;;;;;;;;;;;23.73;29.27;94353.56;5000099;28;1713;-72
2023/01/21 12:03:24;;;;;;;;;;;;;;;23.73;29.15;94354.38;5015216;28;1776;-72
2023/01/21 12:05:52;;;;;;;;;;;;;;;23.73;29.31;94364.28;5014470;28;1635;-72
2023/01/21 12:08:21;;;;;;;;;;;;;;;23.74;29.10;94372.09;5008319;28;1383;-72
2023/01/21 12:10:47;;;;;;;;;;;;;;;23.74;29.17;94387.34;5016680;28;1429;-72
2023/01/21 12:13:20;;;;;;;;;;;;;;;23.75;28.95;94376.38;5006847;28;1745;-72
2023/01/21 12:16:04;;;;;;;;;;;;;;;23.76;29.02;94369.16;5005029;28;1965;-71
2023/01/21 12:18:33;;;;;;;;;;;;;;;23.78;29.07;94372.41;5017394;28;1650;-72
2023/01/21 12:21:09;;;;;;;;;;;;;;;23.77;29.16;94368.91;5008098;28;1705;-72
2023/01/21 12:23:43;;;;;;;;;;;;;;;23.73;28.99;94364.28;5008580;28;1709;-72
2023/01/21 12:26:27;;;;;;;;;;;;;;;23.76;29.24;94358.44;5002355;28;1364;-72
2023/01/21 12:29:04;;;;;;;;;;;;;;;23.75;29.24;94333.53;5007513;28;1330;-72
2023/01/21 12:31:36;;;;;;;;;;;;;;;23.72;29.58;94325.16;5008436;28;1636;-72
2023/01/21 12:34:10;;;;;;;;;;;;;;;23.72;29.64;94322.50;5009299;28;1376;-72
2023/01/21 12:36:40;;;;;;;;;;;;;;;23.71;29.29;94344.97;5008782;28;1945;-71
2023/01/21 12:39:17;;;;;;;;;;;;;;;23.73;29.60;94361.59;4999410;28;1499;-72
2023/01/21 12:41:45;;;;;;;;;;;;;;;23.71;29.55;94372.56;5010833;28;1622;-71
2023/01/21 12:44:11;;;;;;;;;;;;;;;23.73;29.30;94377.66;5005600;28;1801;-72
2023/01/21 12:46:40;;;;;;;;;;;;;;;23.73;29.19;94375.78;5009403;28;1636;-71
2023/01/21 12:49:06;;;;;;;;;;;;;;;23.73;29.27;94375.78;5016339;28;1580;-71
2023/01/21 12:51:38;;;;;;;;;;;;;;;23.73;29.51;94385.69;5006447;28;1658;-72
2023/01/21 12:54:22;;;;;;;;;;;;;;;23.71;29.34;94396.66;5006629;28;1677;-72
2023/01/21 12:57:07;;;;;;;;;;;;;;;23.72;29.27;94387.56;5013413;28;1902;-72
2023/01/21 12:59:38;;;;;;;;;;;;;;;23.73;29.39;94373.13;5014234;28;1632;-73
2023/01/21 13:02:12;;;;;;;;;;;;;;;23.77;29.28;94378.81;5011907;28;1488;-72
2023/01/21 13:04:53;;;;;;;;;;;;;;;23.77;29.33;94393.03;5017142;28;1614;-72
2023/01/21 13:07:18;;;;;;;;;;;;;;;23.77;29.32;94393.03;5004623;28;1565;-72